createdAt,value
2023-05-05T05:01:52.831Z,15.37
2023-05-05T05:04:39.089Z,15.09
2023-05-05T05:07:25.970Z,15.41
2023-05-05T05:10:12.270Z,15.56
2023-05-05T05:12:58.696Z,15.47
2023-05-05T07:37:56.679Z,20.43
2023-05-05T07:41:05.383Z,20.50
2023-05-05T07:55:33.733Z,20.70
2023-05-05T07:58:25.428Z,22.21
2023-05-05T08:01:13.362Z,23.95
2023-05-05T08:04:01.088Z,23.44
2023-05-05T08:06:50.698Z,24.99
2023-05-05T08:09:37.896Z,23.53
2023-05-05T08:12:25.281Z,22.80
2023-05-05T08:15:13.515Z,23.32
2023-05-05T08:18:00.667Z,23.54
2023-05-05T08:20:47.335Z,23.96
2023-05-05T08:23:34.984Z,23.32
2023-05-05T08:26:25.297Z,23.56
2023-05-05T08:29:15.193Z,23.17
2023-05-05T08:32:03.950Z,23.69
2023-05-05T08:34:52.778Z,23.30
2023-05-05T08:37:39.290Z,22.79
2023-05-05T08:40:33.011Z,22.90
2023-05-05T08:43:22.837Z,22.67
2023-05-05T08:46:12.490Z,22.84
2023-05-05T08:49:03.855Z,22.24
2023-05-05T08:51:55.263Z,22.79
2023-05-05T08:54:50.560Z,22.15
2023-05-05T08:58:34.191Z,22.51
2023-05-05T09:02:09.768Z,22.39
2023-05-05T09:05:46.964Z,22.17
2023-05-05T09:08:36.963Z,21.76
2023-05-05T09:11:23.474Z,22.05
2023-05-05T09:14:11.043Z,21.63
2023-05-05T09:41:55.527Z,20.13
2023-05-05T09:46:40.603Z,17.22
2023-05-05T09:59:52.269Z,16.97
2023-05-05T10:04:20.898Z,17.17
2023-05-05T10:33:50.557Z,16.94
2023-05-05T10:36:39.196Z,16.73
2023-05-05T10:39:27.271Z,16.38
2023-05-05T10:42:16.223Z,16.33
2023-05-05T10:45:03.081Z,15.88
2023-05-05T10:47:51.308Z,16.09
2023-05-05T10:50:45.721Z,15.65
2023-05-05T10:53:37.349Z,15.03
2023-05-05T10:56:29.233Z,15.81
2023-05-05T10:59:40.697Z,15.73
2023-05-05T11:02:28.045Z,16.34
2023-05-05T11:05:18.291Z,16.96
2023-05-05T11:08:26.300Z,16.80
2023-05-05T11:11:14.003Z,16.63
2023-05-05T11:14:22.322Z,16.67
2023-05-05T11:17:45.251Z,16.87
2023-05-05T11:21:09.041Z,16.68
2023-05-05T11:24:29.888Z,16.87
2023-05-05T11:27:15.988Z,16.56
2023-05-05T11:30:07.821Z,16.47
2023-05-05T11:33:24.621Z,16.31
2023-05-05T11:36:12.564Z,16.57
2023-05-05T11:39:05.997Z,16.33
2023-05-05T11:42:18.738Z,16.66
2023-05-05T11:45:20.777Z,16.62
2023-05-05T11:48:25.532Z,16.32
2023-05-05T11:51:13.104Z,16.63
2023-05-05T11:53:59.402Z,16.93
2023-05-05T11:56:51.073Z,16.62
2023-05-05T11:59:50.994Z,16.77
2023-05-05T12:02:37.557Z,16.17
2023-05-05T12:05:23.882Z,16.35
2023-05-05T12:08:10.753Z,16.52
2023-05-05T12:11:03.624Z,16.16
2023-05-05T12:13:49.657Z,16.09
2023-05-05T12:16:37.865Z,16.08
2023-05-05T12:19:29.766Z,16.19
2023-05-05T12:22:21.420Z,15.93
2023-05-05T12:25:09.131Z,15.82
2023-05-05T12:27:55.416Z,16.14
2023-05-05T12:30:41.826Z,15.91
2023-05-05T12:33:29.584Z,15.86
2023-05-05T12:36:16.343Z,16.12
2023-05-05T12:39:03.340Z,16.03
2023-05-05T12:41:50.932Z,15.82
2023-05-05T12:44:38.080Z,15.86
2023-05-05T12:47:33.894Z,15.73
2023-05-05T12:50:32.065Z,15.46
2023-05-05T12:53:24.346Z,15.55
2023-05-05T12:56:36.432Z,15.49
2023-05-05T12:59:31.987Z,15.39
2023-05-05T13:02:18.462Z,15.60
2023-05-05T13:05:05.659Z,15.44
2023-05-05T13:07:53.412Z,15.56
2023-05-05T13:10:43.104Z,15.64
2023-05-05T13:13:33.333Z,15.44
2023-05-05T13:16:24.285Z,15.53
2023-05-05T13:19:29.184Z,15.67
2023-05-05T13:22:19.249Z,15.73
2023-05-05T13:25:16.421Z,15.28
2023-05-05T13:28:08.231Z,15.33
2023-05-05T13:31:21.915Z,15.29
2023-05-05T13:34:18.734Z,15.27
2023-05-05T13:37:19.156Z,15.25
2023-05-05T13:40:15.087Z,15.35
2023-05-05T13:43:23.299Z,15.14
2023-05-05T13:46:20.910Z,15.39
2023-05-05T13:49:17.087Z,15.46
2023-05-05T13:52:41.694Z,15.51
2023-05-05T13:55:38.895Z,15.53
2023-05-05T13:58:46.727Z,15.80
2023-05-05T14:01:44.961Z,15.64
2023-05-05T14:04:43.412Z,15.40
2023-05-05T14:07:39.634Z,15.82
2023-05-05T14:10:57.491Z,15.67
2023-05-05T14:14:06.122Z,15.77
2023-05-05T14:17:21.531Z,16.01
2023-05-05T14:20:23.800Z,15.92
2023-05-05T14:23:24.331Z,15.82
2023-05-05T14:29:51.093Z,16.24
2023-05-05T14:33:02.601Z,16.89
2023-05-05T14:36:11.680Z,17.32
2023-05-05T14:39:20.090Z,17.97
2023-05-05T14:42:29.372Z,17.49
2023-05-05T14:45:34.152Z,17.15
2023-05-05T14:48:26.852Z,17.14
2023-05-05T14:51:29.581Z,17.11
2023-05-05T14:54:33.152Z,17.52
2023-05-05T14:57:33.736Z,17.98
2023-05-05T16:01:36.104Z,19.30
2023-05-05T16:04:22.807Z,19.24
2023-05-05T16:07:09.070Z,18.68
2023-05-05T16:09:56.509Z,20.07
2023-05-05T16:12:42.710Z,19.48
2023-05-05T16:47:36.946Z,22.95
2023-05-05T16:50:24.035Z,23.33
2023-05-05T16:53:10.605Z,23.65
2023-05-05T16:56:01.568Z,23.53
2023-05-05T16:58:52.487Z,21.56
2023-05-05T17:04:36.601Z,18.50
2023-05-05T17:07:23.165Z,18.00
2023-05-05T17:10:10.629Z,17.74
2023-05-05T17:12:56.815Z,18.03
2023-05-05T17:15:44.711Z,17.91
2023-05-05T17:18:31.187Z,17.72
2023-05-05T17:21:17.290Z,17.84
2023-05-05T17:24:03.377Z,17.19
2023-05-05T17:26:49.505Z,16.85
2023-05-05T17:29:40.389Z,16.84
2023-05-05T17:32:28.299Z,17.00
2023-05-05T17:35:15.510Z,16.98
2023-05-05T17:38:01.729Z,16.68
2023-05-05T17:40:47.939Z,17.79
2023-05-05T17:43:43.457Z,18.04
2023-05-05T17:46:30.288Z,17.42
2023-05-05T17:49:23.741Z,17.15
2023-05-05T17:52:10.576Z,17.37
2023-05-05T17:54:56.853Z,17.37
2023-05-05T17:57:43.322Z,16.66
2023-05-05T18:00:31.264Z,16.68
2023-05-05T18:03:17.723Z,16.60
2023-05-05T18:06:08.526Z,16.73
2023-05-05T18:08:57.632Z,16.87
2023-05-05T18:11:45.407Z,16.85
2023-05-05T18:14:32.634Z,16.78
2023-05-05T18:17:19.581Z,16.80
2023-05-05T18:20:08.673Z,16.75
2023-05-05T18:22:56.536Z,16.76
2023-05-05T18:26:09.162Z,16.73
2023-05-05T18:28:56.034Z,16.74
2023-05-05T18:31:42.693Z,16.65
2023-05-05T18:34:29.936Z,16.64
2023-05-05T18:37:16.343Z,16.60
2023-05-05T18:40:06.188Z,16.47
2023-05-05T18:42:52.380Z,16.38
2023-05-05T18:45:55.057Z,16.67
2023-05-05T18:48:41.724Z,17.03
2023-05-05T18:51:28.289Z,16.57
2023-05-05T18:54:53.106Z,16.38
2023-05-05T18:57:40.539Z,16.37
2023-05-05T19:26:29.454Z,15.18
2023-05-05T19:29:16.058Z,14.91
2023-05-05T19:32:02.093Z,14.69
2023-05-05T19:34:48.864Z,14.71
2023-05-05T19:37:35.138Z,14.50
2023-05-05T19:40:21.502Z,14.29
2023-05-05T19:43:09.552Z,14.34
2023-05-05T19:45:55.646Z,14.20
2023-05-05T19:48:42.067Z,14.06
2023-05-05T19:51:29.052Z,13.85
2023-05-05T19:54:15.892Z,13.96
2023-05-05T19:57:02.567Z,13.82
2023-05-05T19:59:50.139Z,13.70
2023-05-05T20:05:56.143Z,13.63
2023-05-05T20:08:42.356Z,13.66
2023-05-05T20:11:29.530Z,13.60
2023-05-05T20:14:15.554Z,13.52
2023-05-05T20:17:01.164Z,13.44
2023-05-05T20:19:53.355Z,13.45
2023-05-05T20:22:40.585Z,13.37
2023-05-05T20:25:34.665Z,13.31
2023-05-05T20:28:21.473Z,13.15
2023-05-05T20:31:09.391Z,13.34
2023-05-05T20:33:57.404Z,14.10
2023-05-05T20:36:44.134Z,13.96
2023-05-05T20:39:30.601Z,14.12
2023-05-05T20:42:16.982Z,14.09
2023-05-05T20:45:05.578Z,14.06
2023-05-05T20:47:51.937Z,13.85
2023-05-05T20:50:40.099Z,14.00
2023-05-05T20:53:26.874Z,14.01
2023-05-05T20:56:13.208Z,13.89
2023-05-05T20:58:59.652Z,13.89
2023-05-05T21:01:46.500Z,13.96
2023-05-05T21:04:32.483Z,13.84
2023-05-05T21:07:20.171Z,13.57
2023-05-05T21:10:08.387Z,13.60
2023-05-05T21:12:55.055Z,13.84
2023-05-05T21:15:41.385Z,13.86
2023-05-05T21:18:27.725Z,13.63
2023-05-05T21:21:14.003Z,13.54
2023-05-05T21:24:02.001Z,13.57
2023-05-05T21:26:48.826Z,13.64
2023-05-05T21:29:37.753Z,13.62
2023-05-05T21:32:24.400Z,13.57
2023-05-05T21:35:10.749Z,13.22
2023-05-05T21:37:57.353Z,13.38
2023-05-05T21:40:44.702Z,13.54
2023-05-05T21:43:31.119Z,13.44
2023-05-05T21:46:17.993Z,13.27
2023-05-05T21:49:12.784Z,13.23
2023-05-05T21:51:58.784Z,13.27
2023-05-05T21:54:44.956Z,13.26
2023-05-05T21:57:32.516Z,13.36
2023-05-05T22:00:19.204Z,13.84
2023-05-05T22:03:05.580Z,13.67
2023-05-05T22:05:51.716Z,13.71
2023-05-05T22:08:37.829Z,13.81
2023-05-05T22:11:24.202Z,13.77
2023-05-05T22:14:11.906Z,13.90
